Time;durP1;ratioP1;P1;durP2;ratioP2;P2;SDS_P1;SDS_P2;PMS_P1;PMS_P2;Temp;Humidity;BMP_temperature;BMP_pressure;BME280_temperature;BME280_humidity;BME280_pressure;Samples;Min_cycle;Max_cycle;Signal;HPM_P1;HPM_P2
2021/08/12 00:00:52;;;;;;;7.43;4.63;;;;;;;25.08;74.11;98371.44;4990956;28;20208;-68
2021/08/12 00:03:19;;;;;;;6.53;4.17;;;;;;;25.42;72.55;98381.28;4991829;28;20241;-67
2021/08/12 00:05:48;;;;;;;5.80;3.97;;;;;;;25.64;70.70;98370.69;4988516;28;20218;-68
2021/08/12 00:08:15;;;;;;;7.13;4.30;;;;;;;25.29;72.49;98378.41;4988657;28;20226;-67
2021/08/12 00:10:42;;;;;;;7.20;4.47;;;;;;;25.14;73.89;98375.75;4995072;28;20687;-68
2021/08/12 00:13:10;;;;;;;8.73;4.30;;;;;;;25.12;73.04;98378.78;4990910;28;20214;-68
2021/08/12 00:15:37;;;;;;;6.57;4.20;;;;;;;25.21;73.08;98385.25;4990660;28;20234;-68
2021/08/12 00:18:04;;;;;;;9.43;4.30;;;;;;;25.43;71.67;98382.13;4992023;28;20226;-68
2021/08/12 00:20:32;;;;;;;7.40;3.77;;;;;;;24.92;74.34;98378.91;4999380;28;20221;-67
2021/08/12 00:23:00;;;;;;;7.83;3.87;;;;;;;25.12;74.10;98373.31;4987776;28;20222;-67
2021/08/12 00:25:27;;;;;;;6.47;4.50;;;;;;;25.36;72.07;98382.44;4984642;28;20202;-67
2021/08/12 00:27:55;;;;;;;8.33;3.97;;;;;;;25.45;71.04;98378.00;4990335;28;20206;-67
2021/08/12 00:30:22;;;;;;;6.80;4.10;;;;;;;25.09;73.69;98375.78;4995944;28;20222;-68
2021/08/12 00:32:49;;;;;;;7.93;4.70;;;;;;;25.14;73.73;98376.56;4996158;28;20544;-67
2021/08/12 00:35:17;;;;;;;7.27;4.40;;;;;;;25.31;72.20;98367.97;4988371;28;20213;-67
2021/08/12 00:37:44;;;;;;;5.90;4.20;;;;;;;25.23;72.60;98365.84;4998849;28;20214;-67
2021/08/12 00:40:13;;;;;;;5.03;3.87;;;;;;;24.69;75.48;98360.53;4985825;28;20221;-67
2021/08/12 00:42:41;;;;;;;7.90;4.17;;;;;;;25.20;73.33;98364.50;4983982;28;20297;-68
2021/08/12 00:45:09;;;;;;;5.57;4.10;;;;;;;24.86;75.28;98360.94;5007171;28;20209;-67
2021/08/12 00:47:36;;;;;;;6.83;4.20;;;;;;;25.07;74.32;98362.41;4991458;28;20689;-67
2021/08/12 00:50:04;;;;;;;5.63;4.17;;;;;;;25.12;73.66;98361.56;4991731;28;20706;-68
2021/08/12 00:52:32;;;;;;;7.23;4.13;;;;;;;24.94;74.92;98362.25;4988879;28;20205;-68
2021/08/12 00:54:59;;;;;;;7.57;4.40;;;;;;;24.77;76.81;98361.84;4989277;28;20200;-68
2021/08/12 00:57:28;;;;;;;6.43;4.10;;;;;;;25.07;74.14;98367.88;4986736;28;20230;-68
2021/08/12 00:59:55;;;;;;;6.77;4.23;;;;;;;25.25;72.36;98372.69;5000089;28;20230;-68
2021/08/12 01:02:23;;;;;;;7.30;4.40;;;;;;;25.22;72.81;98375.13;4990815;28;20212;-68
2021/08/12 01:04:50;;;;;;;11.20;4.43;;;;;;;24.81;75.42;98371.06;4991449;28;20217;-67
2021/08/12 01:07:24;;;;;;;6.83;4.40;;;;;;;24.71;76.63;98371.13;4989591;28;20209;-68
2021/08/12 01:09:56;;;;;;;6.53;4.20;;;;;;;24.97;75.23;98380.78;5001972;28;20242;-68
2021/08/12 01:12:31;;;;;;;5.90;4.60;;;;;;;24.92;75.17;98378.09;4995683;28;20220;-68
2021/08/12 01:15:03;;;;;;;5.93;4.43;;;;;;;24.60;77.73;98391.41;5009483;28;20612;-68
2021/08/12 01:17:35;;;;;;;14.23;4.97;;;;;;;24.77;77.12;98392.66;5001530;28;20238;-68
2021/08/12 01:20:30;;;;;;;9.93;4.93;;;;;;;24.94;75.82;98395.03;4988138;28;20236;-68
2021/08/12 01:22:58;;;;;;;9.20;4.87;;;;;;;24.62;77.49;98386.50;5001764;28;20213;-68
2021/08/12 01:25:28;;;;;;;6.93;5.07;;;;;;;24.51;78.70;98385.69;5000849;28;20659;-67
2021/08/12 01:28:00;;;;;;;7.80;5.00;;;;;;;25.03;75.14;98394.13;5000665;28;20206;-68
2021/08/12 01:30:31;;;;;;;9.27;4.43;;;;;;;25.10;74.51;98391.91;4991079;28;20209;-69
2021/08/12 01:33:06;;;;;;;7.50;4.73;;;;;;;24.86;76.08;98393.72;4990201;28;20213;-68
2021/08/12 01:35:36;;;;;;;6.93;4.90;;;;;;;24.82;76.79;98394.56;5005169;28;20209;-68
2021/08/12 01:38:05;;;;;;;8.13;4.70;;;;;;;24.70;77.84;98394.06;4992830;28;20210;-67
2021/08/12 01:40:34;;;;;;;7.20;5.07;;;;;;;24.55;78.62;98386.75;4993195;28;20233;-68
2021/08/12 01:43:04;;;;;;;9.17;4.80;;;;;;;24.55;78.91;98378.56;5002008;28;20321;-68
2021/08/12 01:45:31;;;;;;;8.80;5.27;;;;;;;24.02;82.49;98387.53;4998272;28;20214;-67
2021/08/12 01:48:00;;;;;;;7.40;4.90;;;;;;;24.43;81.45;98383.53;4997997;28;20210;-68
2021/08/12 01:50:28;;;;;;;7.23;5.10;;;;;;;24.78;77.42;98380.63;4993168;28;20302;-67
2021/08/12 01:52:57;;;;;;;9.30;5.53;;;;;;;24.38;79.77;98385.47;5000264;28;20212;-68
2021/08/12 01:55:28;;;;;;;7.37;5.10;;;;;;;24.64;78.72;98376.94;5003715;28;20685;-68
2021/08/12 01:57:56;;;;;;;10.80;5.50;;;;;;;24.54;79.33;98384.31;4998674;28;20598;-68
2021/08/12 02:00:24;;;;;;;7.60;5.43;;;;;;;24.63;78.53;98385.41;4992472;28;20705;-67
2021/08/12 02:02:52;;;;;;;9.50;5.03;;;;;;;24.32;81.18;98381.94;4990364;28;20268;-68
2021/08/12 02:05:20;;;;;;;7.17;5.37;;;;;;;24.16;81.77;98383.13;4990003;28;20554;-68
2021/08/12 02:07:48;;;;;;;10.40;5.60;;;;;;;24.02;83.47;98373.88;4994677;28;20203;-68
2021/08/12 02:10:18;;;;;;;7.37;5.33;;;;;;;24.43;80.16;98372.63;4986529;28;20219;-67
2021/08/12 02:12:46;;;;;;;7.77;5.10;;;;;;;24.54;79.48;98374.22;4995486;28;20211;-68
2021/08/12 02:15:14;;;;;;;7.80;5.10;;;;;;;24.47;79.63;98372.91;5001571;28;20296;-68
2021/08/12 02:17:41;;;;;;;8.07;5.40;;;;;;;24.47;80.02;98364.72;4998368;28;20224;-68
2021/08/12 02:20:11;;;;;;;7.47;5.00;;;;;;;24.45;80.05;98369.63;4990666;28;20297;-67
2021/08/12 02:22:44;;;;;;;7.27;5.60;;;;;;;24.09;82.71;98366.25;4992648;28;20210;-68
2021/08/12 02:25:14;;;;;;;7.00;5.10;;;;;;;24.40;81.78;98358.72;4993246;28;20225;-67
2021/08/12 02:27:45;;;;;;;8.93;5.37;;;;;;;24.50;79.70;98359.50;5002114;28;20236;-68
2021/08/12 02:30:14;;;;;;;8.30;5.30;;;;;;;24.50;80.27;98366.84;4991270;28;20216;-68
2021/08/12 02:32:43;;;;;;;9.40;6.43;;;;;;;24.25;81.45;98367.81;4994673;28;20209;-68
2021/08/12 02:35:12;;;;;;;8.57;6.00;;;;;;;24.49;80.19;98360.59;4993283;28;20207;-67
2021/08/12 02:37:39;;;;;;;8.23;5.40;;;;;;;24.53;80.47;98361.66;4982283;28;20742;-67
2021/08/12 02:40:08;;;;;;;7.80;5.90;;;;;;;24.94;77.29;98362.25;4988924;28;20221;-68
2021/08/12 02:42:37;;;;;;;9.93;6.10;;;;;;;25.06;76.21;98357.22;4990768;28;20215;-68
2021/08/12 02:45:07;;;;;;;9.57;5.77;;;;;;;25.12;75.61;98359.66;5002338;28;20212;-68
2021/08/12 02:47:35;;;;;;;9.67;6.00;;;;;;;25.14;75.41;98360.16;4985867;28;20204;-68
2021/08/12 02:50:03;;;;;;;8.00;5.50;;;;;;;25.13;75.51;98355.00;4987725;28;20238;-68
2021/08/12 02:52:31;;;;;;;8.00;5.57;;;;;;;25.18;74.98;98352.25;4993527;28;20201;-68
2021/08/12 02:54:58;;;;;;;12.90;8.03;;;;;;;25.23;74.49;98350.25;5000481;28;20207;-68
2021/08/12 02:57:26;;;;;;;8.27;6.17;;;;;;;25.14;74.87;98357.44;4993421;28;20255;-68
2021/08/12 02:59:53;;;;;;;8.60;5.27;;;;;;;25.08;75.85;98361.31;4989531;28;20230;-67
2021/08/12 03:02:22;;;;;;;8.30;5.70;;;;;;;25.13;75.53;98355.81;4977628;28;20657;-67
2021/08/12 03:04:50;;;;;;;7.77;5.63;;;;;;;25.31;74.20;98365.25;4991324;28;20238;-68
2021/08/12 03:07:19;;;;;;;8.80;5.70;;;;;;;25.27;73.75;98345.88;4993590;28;20203;-67
2021/08/12 03:09:48;;;;;;;8.97;5.80;;;;;;;25.32;73.29;98345.00;4988005;28;20233;-68
2021/08/12 03:12:16;;;;;;;8.73;5.50;;;;;;;25.17;74.30;98328.72;4987682;28;20213;-68
2021/08/12 03:14:43;;;;;;;9.50;6.10;;;;;;;25.10;74.53;98339.19;4998436;28;20377;-67
2021/08/12 03:17:12;;;;;;;9.47;5.87;;;;;;;25.07;75.02;98335.09;4989556;28;20226;-68
2021/08/12 03:19:43;;;;;;;8.57;5.90;;;;;;;25.11;74.52;98338.91;4988118;28;20789;-68
2021/08/12 03:22:12;;;;;;;10.80;5.80;;;;;;;25.12;74.00;98340.53;4992364;28;20245;-68
2021/08/12 03:24:42;;;;;;;7.13;5.37;;;;;;;25.01;74.79;98329.97;4991161;28;20212;-67
2021/08/12 03:27:11;;;;;;;8.20;5.83;;;;;;;24.81;76.19;98333.66;4997563;28;20205;-67
2021/08/12 03:29:39;;;;;;;9.30;6.13;;;;;;;25.05;74.58;98336.50;4983060;28;20237;-68
2021/08/12 03:32:07;;;;;;;7.37;5.80;;;;;;;24.97;75.05;98335.19;4998889;28;20294;-67
2021/08/12 03:34:35;;;;;;;9.23;6.30;;;;;;;24.91;75.27;98340.97;4998155;28;20217;-68
2021/08/12 03:37:04;;;;;;;8.33;6.40;;;;;;;24.86;75.79;98336.38;4989048;28;20216;-68
2021/08/12 03:39:32;;;;;;;8.53;5.53;;;;;;;24.88;75.25;98339.63;4990791;28;20233;-68
2021/08/12 03:41:59;;;;;;;7.27;5.70;;;;;;;24.57;76.98;98343.63;4990005;28;20237;-68
2021/08/12 03:44:27;;;;;;;8.93;5.70;;;;;;;24.74;76.62;98340.53;5005401;28;20249;-68
2021/08/12 03:46:54;;;;;;;9.00;5.97;;;;;;;24.83;75.98;98344.31;4991430;28;20208;-67
2021/08/12 03:49:22;;;;;;;9.77;6.67;;;;;;;24.82;76.27;98345.41;4991494;28;20232;-68
2021/08/12 03:51:49;;;;;;;11.40;5.67;;;;;;;24.86;75.85;98347.28;4986972;28;20209;-68
2021/08/12 03:54:17;;;;;;;10.60;6.80;;;;;;;24.79;76.34;98344.06;4996615;28;20294;-67
2021/08/12 03:56:45;;;;;;;8.63;5.30;;;;;;;24.94;75.77;98349.41;4996370;28;20241;-68
2021/08/12 03:59:12;;;;;;;9.50;6.13;;;;;;;24.94;75.59;98348.59;4999451;28;20230;-68
2021/08/12 04:01:39;;;;;;;9.83;5.77;;;;;;;24.99;75.15;98356.75;5001581;28;20208;-68
2021/08/12 04:04:06;;;;;;;7.63;5.57;;;;;;;24.92;75.63;98348.03;4988704;28;20214;-67
2021/08/12 04:06:34;;;;;;;10.00;6.10;;;;;;;24.98;75.37;98355.13;4987172;28;20197;-68
2021/08/12 04:09:01;;;;;;;7.07;5.37;;;;;;;24.97;75.45;98345.28;4991388;28;20233;-68
2021/08/12 04:11:30;;;;;;;7.17;5.13;;;;;;;24.96;75.56;98351.84;4993160;28;20206;-68
2021/08/12 04:13:57;;;;;;;8.93;5.83;;;;;;;24.69;77.01;98346.03;4995179;28;20250;-68
2021/08/12 04:16:24;;;;;;;9.33;6.10;;;;;;;24.60;77.31;98359.47;4995695;28;20220;-68
2021/08/12 04:18:51;;;;;;;11.17;5.87;;;;;;;24.99;75.54;98351.28;4988315;28;20361;-68
2021/08/12 04:21:19;;;;;;;8.17;5.53;;;;;;;25.01;74.89;98354.53;4988201;28;20211;-71
2021/08/12 04:23:46;;;;;;;8.47;5.70;;;;;;;25.09;74.33;98353.94;4998051;28;20217;-67
2021/08/12 04:26:13;;;;;;;8.10;5.70;;;;;;;24.97;74.95;98351.56;4985801;28;20669;-68
2021/08/12 04:28:42;;;;;;;8.43;5.87;;;;;;;25.09;74.54;98349.28;4988115;28;20628;-67
2021/08/12 04:31:09;;;;;;;8.13;6.20;;;;;;;25.16;74.33;98354.41;4994847;28;20206;-68
2021/08/12 04:33:36;;;;;;;11.47;6.20;;;;;;;24.92;75.60;98356.25;4996766;28;20627;-68
2021/08/12 04:36:04;;;;;;;9.13;5.97;;;;;;;24.98;75.21;98346.94;4984284;28;20214;-68
2021/08/12 04:38:32;;;;;;;12.73;5.77;;;;;;;25.08;75.25;98352.31;4991502;28;20241;-68
2021/08/12 04:40:59;;;;;;;8.93;5.60;;;;;;;25.26;73.57;98357.09;4995050;28;20211;-68
2021/08/12 04:43:26;;;;;;;10.17;6.00;;;;;;;25.35;73.06;98347.19;4996406;28;20214;-70
2021/08/12 04:45:55;;;;;;;9.03;5.37;;;;;;;25.46;72.30;98341.34;4983054;28;20235;-70
2021/08/12 04:48:22;;;;;;;9.80;5.90;;;;;;;25.65;70.62;98350.44;4989653;28;20233;-71
2021/08/12 04:50:50;;;;;;;7.60;5.57;;;;;;;25.66;70.73;98343.88;4989675;28;20222;-69
2021/08/12 04:53:17;;;;;;;8.50;5.50;;;;;;;25.61;71.43;98348.56;4993518;28;20214;-68
2021/08/12 04:55:44;;;;;;;8.97;6.03;;;;;;;25.77;70.26;98350.88;5001357;28;20214;-69
2021/08/12 04:58:11;;;;;;;11.20;5.90;;;;;;;25.63;71.54;98349.09;4989702;28;20242;-70
2021/08/12 05:00:39;;;;;;;11.83;6.40;;;;;;;25.93;69.73;98357.81;4989282;28;20206;-68
2021/08/12 05:03:07;;;;;;;7.33;5.47;;;;;;;26.30;68.22;98362.59;4992702;28;20218;-70
2021/08/12 05:05:35;;;;;;;9.30;5.60;;;;;;;26.69;67.07;98365.91;4995992;28;20514;-68
2021/08/12 05:08:03;;;;;;;9.47;4.87;;;;;;;26.86;65.79;98361.53;4982848;28;20208;-69
2021/08/12 05:10:30;;;;;;;8.73;5.43;;;;;;;26.93;64.88;98362.00;4988965;28;20204;-68
2021/08/12 05:12:57;;;;;;;8.53;4.93;;;;;;;26.98;65.01;98364.66;5026468;22;20207;-75
2021/08/12 05:15:25;;;;;;;8.43;5.57;;;;;;;26.96;63.88;98363.31;5017103;28;20753;-74
2021/08/12 05:17:52;;;;;;;6.97;5.10;;;;;;;26.88;64.05;98362.06;5010820;28;20292;-72
2021/08/12 05:20:21;;;;;;;8.53;5.67;;;;;;;27.00;63.17;98369.84;5010483;28;20217;-74
2021/08/12 05:22:49;;;;;;;9.00;5.50;;;;;;;26.94;63.02;98365.53;5011039;28;20218;-72
2021/08/12 05:25:16;;;;;;;8.00;4.87;;;;;;;26.82;63.96;98366.00;5000913;28;20569;-73
2021/08/12 05:27:43;;;;;;;9.87;5.80;;;;;;;26.84;64.03;98365.69;4992283;28;20679;-72
2021/08/12 05:30:11;;;;;;;11.40;5.93;;;;;;;26.86;62.80;98366.22;4999264;28;20229;-73
2021/08/12 05:32:39;;;;;;;8.40;5.40;;;;;;;26.88;62.74;98375.75;4989182;28;20214;-72
2021/08/12 05:35:07;;;;;;;9.43;5.73;;;;;;;27.06;62.18;98374.91;5002597;28;20234;-73
2021/08/12 05:37:35;;;;;;;10.60;5.57;;;;;;;27.16;61.82;98376.72;4993142;28;20228;-77
2021/08/12 05:40:03;;;;;;;11.17;5.47;;;;;;;27.29;61.50;98381.44;4991071;28;20581;-74
2021/08/12 05:42:30;;;;;;;10.50;5.93;;;;;;;27.50;61.46;98389.03;4991242;28;20204;-74
2021/08/12 05:44:57;;;;;;;8.73;5.40;;;;;;;27.72;59.56;98396.63;4997022;28;20226;-72
2021/08/12 05:47:25;;;;;;;9.37;5.60;;;;;;;27.99;58.86;98399.41;5002588;28;20208;-76
2021/08/12 05:49:52;;;;;;;7.13;5.47;;;;;;;28.52;55.12;98404.13;4995574;28;20212;-76
2021/08/12 05:52:19;;;;;;;10.70;5.73;;;;;;;27.86;54.90;98400.19;4990191;28;20908;-72
2021/08/12 05:54:48;;;;;;;8.97;5.80;;;;;;;28.07;54.90;98399.53;4996469;28;20711;-75
2021/08/12 05:57:15;;;;;;;9.10;5.50;;;;;;;27.83;55.66;98398.09;5002215;28;20354;-74
2021/08/12 05:59:43;;;;;;;10.47;5.60;;;;;;;27.58;56.44;98404.81;4991091;28;20204;-74
2021/08/12 06:02:10;;;;;;;8.83;5.13;;;;;;;27.06;59.19;98407.00;4992241;28;20606;-73
2021/08/12 06:04:37;;;;;;;8.53;5.20;;;;;;;27.27;57.75;98405.59;5000917;28;20239;-75
2021/08/12 06:07:05;;;;;;;8.47;5.40;;;;;;;26.87;60.68;98396.06;5003042;28;20583;-75
2021/08/12 06:09:33;;;;;;;10.60;5.60;;;;;;;26.51;62.44;98394.84;4993393;28;20215;-77
2021/08/12 06:12:01;;;;;;;8.23;5.07;;;;;;;27.54;57.53;98409.25;4993613;28;20211;-77
2021/08/12 06:14:29;;;;;;;30.27;17.93;;;;;;;27.89;56.99;98411.41;4996867;28;20239;-76
2021/08/12 06:16:56;;;;;;;7.83;5.97;;;;;;;27.67;59.39;98396.69;4998511;28;20217;-77
2021/08/12 06:19:24;;;;;;;9.20;6.77;;;;;;;27.93;56.93;98400.63;4998038;28;20208;-77
2021/08/12 06:21:51;;;;;;;12.20;7.23;;;;;;;28.23;56.68;98406.34;4989809;28;20648;-73
2021/08/12 06:24:18;;;;;;;15.33;9.30;;;;;;;28.37;56.00;98406.38;4984675;28;20255;-74
2021/08/12 06:26:46;;;;;;;12.13;6.23;;;;;;;27.63;56.74;98401.16;4995347;28;20214;-76
2021/08/12 06:29:15;;;;;;;13.03;7.00;;;;;;;28.29;54.97;98402.41;5000178;28;20209;-74
2021/08/12 06:31:48;;;;;;;9.73;5.53;;;;;;;28.06;54.62;98400.66;4990588;28;20652;-75
2021/08/12 06:34:16;;;;;;;9.90;5.43;;;;;;;28.03;57.11;98387.53;4993655;28;20231;-76
2021/08/12 06:36:43;;;;;;;9.37;5.10;;;;;;;28.02;57.38;98379.63;4992184;28;20204;-77
2021/08/12 06:39:10;;;;;;;12.10;6.07;;;;;;;28.79;53.56;98373.06;4999838;28;20228;-75
2021/08/12 06:41:37;;;;;;;8.53;5.40;;;;;;;28.69;53.32;98374.09;4995522;28;20559;-78
2021/08/12 06:44:05;;;;;;;7.83;5.30;;;;;;;29.28;50.73;98382.06;5005582;28;20247;-77
2021/08/12 06:46:34;;;;;;;10.93;5.83;;;;;;;29.53;48.83;98384.19;5010867;28;20200;-76
2021/08/12 06:49:01;;;;;;;14.10;5.27;;;;;;;29.01;50.17;98393.19;5005287;28;20719;-77
2021/08/12 06:51:28;;;;;;;9.73;5.13;;;;;;;30.21;47.36;98384.59;4993004;28;20205;-76
2021/08/12 06:53:56;;;;;;;9.10;5.15;;;;;;;30.44;45.25;98394.41;4996650;28;20234;-76
2021/08/12 06:56:23;;;;;;;9.65;5.10;;;;;;;30.39;45.55;98400.06;5002090;28;20218;-78
2021/08/12 06:58:50;;;;;;;5.70;4.10;;;;;;;30.91;45.04;98406.53;4996670;28;20318;-75
2021/08/12 07:01:18;;;;;;;10.97;5.30;;;;;;;29.62;48.76;98404.34;4994672;28;20212;-78
2021/08/12 07:03:46;;;;;;;8.70;4.57;;;;;;;31.03;44.36;98413.03;4999611;28;20230;-76
2021/08/12 07:06:14;;;;;;;11.32;4.82;;;;;;;30.28;45.36;98419.94;5006208;28;20200;-80
2021/08/12 07:08:42;;;;;;;9.02;4.55;;;;;;;30.59;45.39;98413.25;5001704;28;20221;-79
2021/08/12 07:11:09;;;;;;;11.27;4.72;;;;;;;30.52;45.33;98412.09;4991473;28;20246;-74
2021/08/12 07:13:37;;;;;;;7.82;4.40;;;;;;;29.05;50.40;98409.84;4993685;28;20714;-78
2021/08/12 07:16:06;;;;;;;8.32;5.00;;;;;;;30.32;46.68;98402.47;4995615;28;20204;-76
2021/08/12 07:18:34;;;;;;;7.72;4.60;;;;;;;30.28;47.41;98411.69;5003947;28;20231;-77
2021/08/12 07:21:03;;;;;;;8.07;5.00;;;;;;;29.51;49.06;98404.88;4994257;28;20212;-77
2021/08/12 07:23:32;;;;;;;11.02;5.00;;;;;;;30.54;46.98;98418.06;4993706;28;20270;-79
2021/08/12 07:25:59;;;;;;;7.70;5.27;;;;;;;29.63;48.68;98414.22;4996261;28;20818;-74
2021/08/12 07:28:26;;;;;;;10.15;4.97;;;;;;;29.08;51.68;98406.50;5001668;28;20214;-77
2021/08/12 07:30:53;;;;;;;8.23;4.93;;;;;;;28.98;51.52;98407.53;5001872;28;20298;-77
2021/08/12 07:33:21;;;;;;;10.82;4.95;;;;;;;29.60;49.47;98412.09;4985718;28;20231;-77
2021/08/12 07:35:48;;;;;;;10.48;5.32;;;;;;;29.59;49.75;98415.19;4994336;28;20208;-75
2021/08/12 07:38:16;;;;;;;9.05;4.82;;;;;;;30.71;45.10;98416.22;4992399;28;20234;-77
2021/08/12 07:40:44;;;;;;;9.20;4.60;;;;;;;31.44;42.72;98418.91;4997674;28;20200;-77
2021/08/12 07:43:11;;;;;;;10.07;4.93;;;;;;;32.49;40.43;98425.50;4996587;28;20239;-80
2021/08/12 07:45:38;;;;;;;11.02;4.90;;;;;;;32.74;40.02;98421.78;4995675;28;20269;-76
2021/08/12 07:48:06;;;;;;;11.35;4.53;;;;;;;29.57;49.16;98395.41;5004997;28;20203;-72
2021/08/12 07:50:33;;;;;;;18.70;4.78;;;;;;;30.60;47.06;98398.31;4995022;28;20321;-73
2021/08/12 07:53:01;;;;;;;10.02;4.60;;;;;;;31.44;44.26;98405.09;4985507;28;20732;-73
2021/08/12 07:55:29;;;;;;;9.02;5.38;;;;;;;31.76;42.61;98415.63;4986077;28;20208;-72
2021/08/12 07:57:57;;;;;;;8.05;5.03;;;;;;;32.13;41.99;98411.31;5001929;28;20227;-73
2021/08/12 08:00:24;;;;;;;9.32;5.22;;;;;;;31.70;41.97;98405.88;4986971;28;20211;-75
2021/08/12 08:02:52;;;;;;;9.35;5.05;;;;;;;30.96;45.05;98398.09;4994921;28;20215;-80
2021/08/12 08:05:20;;;;;;;7.35;4.82;;;;;;;31.18;43.55;98404.28;4990181;28;20204;-75
2021/08/12 08:07:49;;;;;;;10.45;4.68;;;;;;;31.54;44.04;98403.94;4990250;28;20223;-76
2021/08/12 08:10:17;;;;;;;15.85;5.18;;;;;;;31.68;42.16;98413.66;4991340;28;20220;-76
2021/08/12 08:12:46;;;;;;;8.98;5.22;;;;;;;32.82;39.85;98413.44;4992316;28;20211;-76
2021/08/12 08:15:14;;;;;;;7.97;4.85;;;;;;;32.95;38.98;98411.59;4999096;28;20223;-79
2021/08/12 08:17:42;;;;;;;11.00;4.85;;;;;;;33.20;38.66;98411.38;5002215;28;20823;-76
2021/08/12 08:20:12;;;;;;;10.60;5.85;;;;;;;33.25;38.46;98408.41;4993977;28;20223;-76
2021/08/12 08:22:39;;;;;;;10.05;4.55;;;;;;;30.51;45.99;98386.47;5000435;28;20242;-73
2021/08/12 08:25:08;;;;;;;6.38;4.43;;;;;;;31.23;44.72;98386.78;5008301;28;20227;-73
2021/08/12 08:27:36;;;;;;;7.65;4.10;;;;;;;31.80;42.79;98402.81;4997656;28;20291;-71
2021/08/12 08:30:05;;;;;;;5.95;3.85;;;;;;;32.30;42.72;98394.69;4993636;28;20215;-74
2021/08/12 08:32:33;;;;;;;8.15;4.43;;;;;;;32.27;41.83;98398.94;5001723;28;20219;-78
2021/08/12 08:35:00;;;;;;;11.95;4.72;;;;;;;30.94;44.51;98387.41;4996185;28;20223;-77
2021/08/12 08:37:27;;;;;;;6.75;4.50;;;;;;;30.89;45.25;98382.03;4991807;28;20212;-75
2021/08/12 08:39:55;;;;;;;7.63;4.65;;;;;;;30.99;45.22;98389.16;4991494;28;20319;-75
2021/08/12 08:42:22;;;;;;;8.55;4.10;;;;;;;31.52;43.65;98392.44;5001077;28;20206;-75
2021/08/12 08:44:51;;;;;;;10.88;4.13;;;;;;;33.04;39.88;98401.28;5003521;28;20250;-72
2021/08/12 08:47:22;;;;;;;11.40;4.75;;;;;;;32.22;41.57;98392.72;4991268;28;20200;-72
2021/08/12 08:49:50;;;;;;;7.28;4.20;;;;;;;33.02;38.44;98406.31;4991681;28;20270;-71
2021/08/12 08:52:17;;;;;;;10.70;4.63;;;;;;;33.01;39.68;98397.22;4999699;28;20229;-74
2021/08/12 08:54:44;;;;;;;9.35;4.40;;;;;;;33.37;38.51;98408.50;5001825;28;20230;-74
2021/08/12 08:57:12;;;;;;;6.57;4.47;;;;;;;33.02;38.63;98407.13;4992580;28;20218;-73
2021/08/12 08:59:39;;;;;;;8.32;4.93;;;;;;;32.40;40.46;98399.84;5001126;28;20238;-74
2021/08/12 09:02:08;;;;;;;12.57;4.30;;;;;;;33.67;38.07;98398.94;4993496;28;20210;-73
2021/08/12 09:04:38;;;;;;;9.38;4.18;;;;;;;33.90;37.26;98399.38;4990867;28;20253;-73
2021/08/12 09:07:07;;;;;;;6.35;4.70;;;;;;;31.78;41.59;98394.03;4990291;28;20204;-74
2021/08/12 09:09:35;;;;;;;6.65;4.18;;;;;;;33.54;38.88;98396.47;4993448;28;20566;-76
2021/08/12 09:12:03;;;;;;;9.82;4.43;;;;;;;33.08;39.92;98393.88;5003631;28;20213;-76
2021/08/12 09:14:33;;;;;;;9.15;4.03;;;;;;;33.97;37.04;98396.84;5005361;28;20908;-76
2021/08/12 09:17:01;;;;;;;5.03;4.53;;;;;;;33.92;37.67;98397.06;4991624;28;20810;-75
2021/08/12 09:19:28;;;;;;;7.65;4.50;;;;;;;33.10;40.39;98383.31;4996593;28;20239;-75
2021/08/12 09:21:59;;;;;;;7.90;4.15;;;;;;;34.91;37.22;98399.25;5000976;28;20290;-75
2021/08/12 09:24:27;;;;;;;10.55;4.53;;;;;;;33.57;38.16;98387.47;4999295;28;20227;-76
2021/08/12 09:26:54;;;;;;;7.07;4.30;;;;;;;33.01;39.55;98388.09;4997304;28;20208;-76
2021/08/12 09:29:29;;;;;;;7.82;4.28;;;;;;;35.11;35.28;98391.91;4993705;28;20206;-78
2021/08/12 09:31:58;;;;;;;11.45;4.32;;;;;;;34.84;36.25;98384.34;4999033;28;20222;-74
2021/08/12 09:34:26;;;;;;;11.07;4.82;;;;;;;35.24;35.81;98383.19;5000864;28;20707;-75
2021/08/12 09:37:09;;;;;;;7.88;4.45;;;;;;;33.75;37.42;98377.84;4991943;28;20211;-75
2021/08/12 09:39:36;;;;;;;8.40;4.35;;;;;;;33.43;37.31;98375.88;5001917;28;20571;-75
2021/08/12 09:42:05;;;;;;;5.65;3.90;;;;;;;33.74;36.34;98384.50;5002096;28;20211;-76
2021/08/12 09:44:36;;;;;;;8.13;4.20;;;;;;;34.14;36.48;98378.06;4999766;28;20219;-76
2021/08/12 09:47:06;;;;;;;8.15;4.25;;;;;;;35.60;33.72;98396.97;4991073;28;20686;-76
2021/08/12 09:49:45;;;;;;;9.55;4.45;;;;;;;35.77;33.31;98384.75;4999114;28;20294;-76
2021/08/12 09:52:27;;;;;;;10.00;4.10;;;;;;;35.17;33.76;98394.09;4999067;28;20222;-75
2021/08/12 09:54:59;;;;;;;6.65;4.22;;;;;;;35.35;33.43;98400.19;4995305;28;20314;-75
2021/08/12 09:57:27;;;;;;;9.40;4.25;;;;;;;36.91;30.99;98397.25;4994989;28;20259;-74
2021/08/12 09:59:55;;;;;;;6.05;3.85;;;;;;;36.44;32.23;98390.94;4990539;28;20239;-77
2021/08/12 10:02:22;;;;;;;8.07;4.43;;;;;;;36.23;32.23;98398.75;5009137;28;20595;-76
2021/08/12 10:05:04;;;;;;;5.38;4.25;;;;;;;34.45;35.06;98383.06;5006878;28;20707;-76
2021/08/12 10:07:41;;;;;;;6.60;4.03;;;;;;;36.75;32.60;98388.13;5005189;28;20220;-77
2021/08/12 10:10:14;;;;;;;8.68;4.25;;;;;;;36.46;32.68;98387.78;5014795;28;20215;-76
2021/08/12 10:12:46;;;;;;;4.78;3.63;;;;;;;37.61;30.16;98387.69;5019645;28;20219;-76
2021/08/12 10:15:28;;;;;;;7.63;4.18;;;;;;;35.05;33.63;98387.78;4999949;28;20227;-75
2021/08/12 10:18:01;;;;;;;12.73;3.88;;;;;;;34.94;34.45;98392.19;4997970;28;20215;-74
2021/08/12 10:20:30;;;;;;;6.30;4.00;;;;;;;34.73;34.84;98382.03;5008967;28;20219;-76
2021/08/12 10:23:06;;;;;;;7.55;4.30;;;;;;;36.21;32.40;98389.94;5017352;28;20242;-75
2021/08/12 10:25:58;;;;;;;7.88;4.07;;;;;;;36.93;31.20;98391.31;5003379;28;20216;-77
2021/08/12 10:28:37;;;;;;;9.15;4.05;;;;;;;36.82;30.75;98393.06;5005692;28;20668;-77
2021/08/12 10:31:08;;;;;;;7.50;3.75;;;;;;;36.33;32.10;98392.63;5012457;28;20234;-77
2021/08/12 10:33:44;;;;;;;7.13;3.88;;;;;;;37.03;30.00;98397.09;5010803;28;20231;-76
2021/08/12 10:36:16;;;;;;;5.32;4.05;;;;;;;37.59;28.74;98398.38;5002559;28;20267;-75
2021/08/12 10:38:53;;;;;;;5.90;3.70;;;;;;;35.83;32.14;98381.38;4998054;28;20231;-75
2021/08/12 10:41:23;;;;;;;5.72;3.85;;;;;;;36.69;29.96;98389.59;5010706;28;20215;-75
2021/08/12 10:43:57;;;;;;;8.23;4.32;;;;;;;36.72;29.36;98388.84;5006246;28;20275;-75
2021/08/12 10:46:43;;;;;;;13.25;4.43;;;;;;;36.98;29.91;98383.47;4997678;28;20626;-75
2021/08/12 10:49:34;;;;;;;8.70;4.35;;;;;;;37.71;27.82;98384.28;5001961;28;20196;-75
2021/08/12 10:52:07;;;;;;;6.00;4.15;;;;;;;37.88;29.02;98369.88;4992737;28;20212;-77
2021/08/12 10:54:37;;;;;;;8.25;4.57;;;;;;;35.78;30.71;98375.25;4995474;28;20318;-74
2021/08/12 10:57:24;;;;;;;8.93;4.03;;;;;;;34.69;32.04;98370.00;4995235;28;20203;-72
2021/08/12 11:00:02;;;;;;;23.52;4.88;;;;;;;36.53;30.05;98371.25;4996886;28;20271;-73
2021/08/12 11:02:43;;;;;;;22.95;4.68;;;;;;;36.54;31.33;98358.97;5001307;28;20207;-74
2021/08/12 11:05:22;;;;;;;8.18;4.15;;;;;;;34.54;32.49;98353.25;4993233;28;20224;-70
2021/08/12 11:07:55;;;;;;;7.95;4.40;;;;;;;35.09;31.86;98356.19;4991339;28;20266;-73
2021/08/12 11:10:27;;;;;;;6.60;4.15;;;;;;;35.74;31.70;98357.66;4994319;28;20268;-73
2021/08/12 11:13:08;;;;;;;31.48;5.25;;;;;;;35.05;32.21;98357.25;5003283;28;20265;-74
2021/08/12 11:16:05;;;;;;;8.48;4.20;;;;;;;36.04;32.23;98354.13;4992290;28;20212;-73
2021/08/12 11:18:50;;;;;;;10.25;4.90;;;;;;;35.27;32.11;98354.78;4945214;28;20216;-73
2021/08/12 11:21:40;;;;;;;26.55;5.15;;;;;;;35.00;33.04;98347.19;4997767;28;20208;-73
2021/08/12 11:24:10;;;;;;;8.60;4.78;;;;;;;36.89;29.74;98362.59;4990797;28;20223;-73
2021/08/12 11:27:04;;;;;;;10.82;4.90;;;;;;;36.98;29.01;98365.97;4997026;28;20720;-73
2021/08/12 11:29:34;;;;;;;5.47;3.92;;;;;;;37.36;29.08;98361.28;5000416;28;20203;-73
2021/08/12 11:32:13;;;;;;;7.47;4.45;;;;;;;37.59;28.42;98361.34;4998034;28;20211;-73
2021/08/12 11:34:48;;;;;;;5.68;4.43;;;;;;;38.31;26.99;98371.47;4990377;28;20235;-74
2021/08/12 11:37:19;;;;;;;5.80;4.22;;;;;;;38.57;26.94;98363.97;4990934;28;20211;-74
2021/08/12 11:39:53;;;;;;;7.65;4.20;;;;;;;38.58;26.11;98368.34;4995293;28;20228;-71
2021/08/12 11:42:34;;;;;;;9.48;4.40;;;;;;;37.07;28.32;98366.59;5006008;28;20228;-77